sensor_id;sensor_type;location;lat;lon;timestamp;temperature;humidity
51305;HTU21D;37392;50.964;6.952;2023-05-10T00:00:36;13.21;13.44
51305;HTU21D;37392;50.964;6.952;2023-05-10T00:03:02;13.19;13.44
51305;HTU21D;37392;50.964;6.952;2023-05-10T00:05:30;13.22;13.49
51305;HTU21D;37392;50.964;6.952;2023-05-10T00:07:56;13.19;13.44
51305;HTU21D;37392;50.964;6.952;2023-05-10T00:10:21;13.16;13.46
51305;HTU21D;37392;50.964;6.952;2023-05-10T00:12:47;13.15;13.50
51305;HTU21D;37392;50.964;6.952;2023-05-10T00:15:12;13.11;13.49
51305;HTU21D;37392;50.964;6.952;2023-05-10T00:17:38;13.12;13.49
51305;HTU21D;37392;50.964;6.952;2023-05-10T00:20:03;13.15;13.48
51305;HTU21D;37392;50.964;6.952;2023-05-10T00:22:30;13.11;13.52
51305;HTU21D;37392;50.964;6.952;2023-05-10T00:24:56;13.15;13.55
51305;HTU21D;37392;50.964;6.952;2023-05-10T00:27:22;13.12;13.55
51305;HTU21D;37392;50.964;6.952;2023-05-10T00:29:48;13.11;13.56
51305;HTU21D;37392;50.964;6.952;2023-05-10T00:32:14;13.11;13.54
51305;HTU21D;37392;50.964;6.952;2023-05-10T00:34:39;13.14;13.61
51305;HTU21D;37392;50.964;6.952;2023-05-10T00:37:05;13.14;13.61
51305;HTU21D;37392;50.964;6.952;2023-05-10T00:39:30;13.16;13.59
51305;HTU21D;37392;50.964;6.952;2023-05-10T00:41:56;13.16;13.61
51305;HTU21D;37392;50.964;6.952;2023-05-10T00:44:21;13.15;13.61
51305;HTU21D;37392;50.964;6.952;2023-05-10T00:46:48;13.16;13.63
51305;HTU21D;37392;50.964;6.952;2023-05-10T00:49:14;13.16;13.61
51305;HTU21D;37392;50.964;6.952;2023-05-10T00:51:40;13.20;13.67
51305;HTU21D;37392;50.964;6.952;2023-05-10T00:54:08;13.23;13.71
51305;HTU21D;37392;50.964;6.952;2023-05-10T00:56:34;13.22;13.72
51305;HTU21D;37392;50.964;6.952;2023-05-10T00:59:00;13.23;13.70
51305;HTU21D;37392;50.964;6.952;2023-05-10T01:01:26;13.23;13.70
51305;HTU21D;37392;50.964;6.952;2023-05-10T01:03:52;13.24;13.70
51305;HTU21D;37392;50.964;6.952;2023-05-10T01:06:18;13.27;13.76
51305;HTU21D;37392;50.964;6.952;2023-05-10T01:08:43;13.29;13.71
51305;HTU21D;37392;50.964;6.952;2023-05-10T01:11:09;13.26;13.74
51305;HTU21D;37392;50.964;6.952;2023-05-10T01:13:35;13.29;13.76
51305;HTU21D;37392;50.964;6.952;2023-05-10T01:16:02;13.30;13.74
51305;HTU21D;37392;50.964;6.952;2023-05-10T01:18:29;13.33;13.78
51305;HTU21D;37392;50.964;6.952;2023-05-10T01:21:32;13.33;13.74
51305;HTU21D;37392;50.964;6.952;2023-05-10T01:26:50;13.34;13.81
51305;HTU21D;37392;50.964;6.952;2023-05-10T01:32:27;13.35;13.81
51305;HTU21D;37392;50.964;6.952;2023-05-10T01:38:19;13.36;13.77
51305;HTU21D;37392;50.964;6.952;2023-05-10T01:41:03;13.41;13.82
51305;HTU21D;37392;50.964;6.952;2023-05-10T01:44:06;13.39;13.81
51305;HTU21D;37392;50.964;6.952;2023-05-10T01:46:37;13.40;13.78
51305;HTU21D;37392;50.964;6.952;2023-05-10T01:49:08;13.38;13.75
51305;HTU21D;37392;50.964;6.952;2023-05-10T01:51:38;13.41;13.82
51305;HTU21D;37392;50.964;6.952;2023-05-10T01:54:07;13.43;13.84
51305;HTU21D;37392;50.964;6.952;2023-05-10T01:56:33;13.40;13.75
51305;HTU21D;37392;50.964;6.952;2023-05-10T01:59:00;13.40;13.76
51305;HTU21D;37392;50.964;6.952;2023-05-10T02:01:31;13.36;13.68
51305;HTU21D;37392;50.964;6.952;2023-05-10T02:03:58;13.33;13.62
51305;HTU21D;37392;50.964;6.952;2023-05-10T02:06:24;13.25;13.52
51305;HTU21D;37392;50.964;6.952;2023-05-10T02:08:50;13.20;13.45
51305;HTU21D;37392;50.964;6.952;2023-05-10T02:11:17;13.20;13.48
51305;HTU21D;37392;50.964;6.952;2023-05-10T02:13:43;13.14;13.39
51305;HTU21D;37392;50.964;6.952;2023-05-10T02:16:10;13.12;13.49
51305;HTU21D;37392;50.964;6.952;2023-05-10T02:18:36;13.07;13.34
51305;HTU21D;37392;50.964;6.952;2023-05-10T02:21:02;13.06;13.49
51305;HTU21D;37392;50.964;6.952;2023-05-10T02:23:28;13.07;13.46
51305;HTU21D;37392;50.964;6.952;2023-05-10T02:25:53;13.02;13.45
51305;HTU21D;37392;50.964;6.952;2023-05-10T02:28:20;13.03;13.54
51305;HTU21D;37392;50.964;6.952;2023-05-10T02:30:46;13.05;13.57
51305;HTU21D;37392;50.964;6.952;2023-05-10T02:33:12;13.05;13.65
51305;HTU21D;37392;50.964;6.952;2023-05-10T02:35:38;13.05;13.65
51305;HTU21D;37392;50.964;6.952;2023-05-10T02:38:04;13.08;13.68
51305;HTU21D;37392;50.964;6.952;2023-05-10T02:40:31;13.07;13.74
51305;HTU21D;37392;50.964;6.952;2023-05-10T02:42:58;13.07;13.87
51305;HTU21D;37392;50.964;6.952;2023-05-10T02:45:25;13.09;13.91
51305;HTU21D;37392;50.964;6.952;2023-05-10T02:47:53;13.08;13.95
51305;HTU21D;37392;50.964;6.952;2023-05-10T02:50:19;13.07;13.94
51305;HTU21D;37392;50.964;6.952;2023-05-10T02:52:49;13.06;13.82
51305;HTU21D;37392;50.964;6.952;2023-05-10T02:55:17;13.03;13.87
51305;HTU21D;37392;50.964;6.952;2023-05-10T02:57:51;13.01;13.93
51305;HTU21D;37392;50.964;6.952;2023-05-10T03:00:19;13.03;13.98
51305;HTU21D;37392;50.964;6.952;2023-05-10T03:02:45;13.05;14.02
51305;HTU21D;37392;50.964;6.952;2023-05-10T03:05:11;13.03;13.99
51305;HTU21D;37392;50.964;6.952;2023-05-10T03:07:36;13.05;14.09
51305;HTU21D;37392;50.964;6.952;2023-05-10T03:10:02;13.01;14.06
51305;HTU21D;37392;50.964;6.952;2023-05-10T03:18:07;12.99;14.20
51305;HTU21D;37392;50.964;6.952;2023-05-10T03:20:42;13.03;14.23
51305;HTU21D;37392;50.964;6.952;2023-05-10T03:23:19;13.02;14.22
51305;HTU21D;37392;50.964;6.952;2023-05-10T03:25:48;13.04;14.29
51305;HTU21D;37392;50.964;6.952;2023-05-10T03:28:14;13.07;14.37
51305;HTU21D;37392;50.964;6.952;2023-05-10T03:30:41;13.08;14.37
51305;HTU21D;37392;50.964;6.952;2023-05-10T03:33:07;13.07;14.39
51305;HTU21D;37392;50.964;6.952;2023-05-10T03:35:32;13.10;14.38
51305;HTU21D;37392;50.964;6.952;2023-05-10T03:37:58;13.10;14.41
51305;HTU21D;37392;50.964;6.952;2023-05-10T03:40:24;13.12;14.45
51305;HTU21D;37392;50.964;6.952;2023-05-10T03:42:49;13.11;14.43
51305;HTU21D;37392;50.964;6.952;2023-05-10T03:45:15;13.12;14.41
51305;HTU21D;37392;50.964;6.952;2023-05-10T03:47:40;13.09;14.41
51305;HTU21D;37392;50.964;6.952;2023-05-10T03:50:06;13.10;14.45
51305;HTU21D;37392;50.964;6.952;2023-05-10T03:52:32;13.11;14.47
51305;HTU21D;37392;50.964;6.952;2023-05-10T03:54:58;13.10;14.46
51305;HTU21D;37392;50.964;6.952;2023-05-10T03:57:23;13.11;14.52
51305;HTU21D;37392;50.964;6.952;2023-05-10T03:59:49;13.12;14.56
51305;HTU21D;37392;50.964;6.952;2023-05-10T04:02:15;13.11;14.48
51305;HTU21D;37392;50.964;6.952;2023-05-10T04:04:40;13.15;14.54
51305;HTU21D;37392;50.964;6.952;2023-05-10T04:07:06;13.17;14.54
51305;HTU21D;37392;50.964;6.952;2023-05-10T04:09:31;13.18;14.61
51305;HTU21D;37392;50.964;6.952;2023-05-10T04:11:58;13.22;14.65
51305;HTU21D;37392;50.964;6.952;2023-05-10T04:14:23;13.26;14.68
51305;HTU21D;37392;50.964;6.952;2023-05-10T04:16:49;13.27;14.65
51305;HTU21D;37392;50.964;6.952;2023-05-10T04:19:15;13.29;14.64
51305;HTU21D;37392;50.964;6.952;2023-05-10T04:21:40;13.30;14.68
51305;HTU21D;37392;50.964;6.952;2023-05-10T04:24:06;13.30;14.68
51305;HTU21D;37392;50.964;6.952;2023-05-10T04:26:31;13.32;14.68
51305;HTU21D;37392;50.964;6.952;2023-05-10T04:28:56;13.33;14.70
51305;HTU21D;37392;50.964;6.952;2023-05-10T04:31:22;13.35;14.71
51305;HTU21D;37392;50.964;6.952;2023-05-10T04:33:47;13.35;14.72
51305;HTU21D;37392;50.964;6.952;2023-05-10T04:36:13;13.34;14.55
51305;HTU21D;37392;50.964;6.952;2023-05-10T04:38:38;13.32;14.45
51305;HTU21D;37392;50.964;6.952;2023-05-10T04:41:07;13.36;14.59
51305;HTU21D;37392;50.964;6.952;2023-05-10T04:43:33;13.39;14.65
51305;HTU21D;37392;50.964;6.952;2023-05-10T04:45:59;13.39;14.66
51305;HTU21D;37392;50.964;6.952;2023-05-10T04:48:25;13.41;14.62
51305;HTU21D;37392;50.964;6.952;2023-05-10T04:50:50;13.44;14.66
51305;HTU21D;37392;50.964;6.952;2023-05-10T04:53:15;13.46;14.61
51305;HTU21D;37392;50.964;6.952;2023-05-10T04:55:41;13.47;14.72
51305;HTU21D;37392;50.964;6.952;2023-05-10T04:58:07;13.53;14.68
51305;HTU21D;37392;50.964;6.952;2023-05-10T05:00:33;13.59;14.80
51305;HTU21D;37392;50.964;6.952;2023-05-10T05:02:58;13.64;14.82
51305;HTU21D;37392;50.964;6.952;2023-05-10T05:05:24;13.67;14.82
51305;HTU21D;37392;50.964;6.952;2023-05-10T05:07:49;13.77;14.90
51305;HTU21D;37392;50.964;6.952;2023-05-10T05:10:15;13.82;14.87
51305;HTU21D;37392;50.964;6.952;2023-05-10T05:12:41;13.89;14.87
51305;HTU21D;37392;50.964;6.952;2023-05-10T05:15:06;13.90;14.80
51305;HTU21D;37392;50.964;6.952;2023-05-10T05:17:34;13.94;14.76
51305;HTU21D;37392;50.964;6.952;2023-05-10T05:19:59;14.00;14.81
51305;HTU21D;37392;50.964;6.952;2023-05-10T05:22:25;14.08;14.64
51305;HTU21D;37392;50.964;6.952;2023-05-10T05:24:53;14.20;14.68
51305;HTU21D;37392;50.964;6.952;2023-05-10T05:27:19;14.19;14.60
51305;HTU21D;37392;50.964;6.952;2023-05-10T05:29:47;14.23;14.56
51305;HTU21D;37392;50.964;6.952;2023-05-10T05:32:13;14.29;14.38
51305;HTU21D;37392;50.964;6.952;2023-05-10T05:34:38;14.34;14.12
51305;HTU21D;37392;50.964;6.952;2023-05-10T05:37:04;14.34;13.84
51305;HTU21D;37392;50.964;6.952;2023-05-10T05:39:29;14.39;13.58
51305;HTU21D;37392;50.964;6.952;2023-05-10T05:41:55;14.37;13.20
51305;HTU21D;37392;50.964;6.952;2023-05-10T05:44:20;14.43;13.25
51305;HTU21D;37392;50.964;6.952;2023-05-10T05:46:45;14.50;13.41
51305;HTU21D;37392;50.964;6.952;2023-05-10T05:49:11;14.57;13.49
51305;HTU21D;37392;50.964;6.952;2023-05-10T05:51:37;14.43;12.29
51305;HTU21D;37392;50.964;6.952;2023-05-10T05:54:02;14.45;12.35
51305;HTU21D;37392;50.964;6.952;2023-05-10T05:56:29;14.60;12.81
51305;HTU21D;37392;50.964;6.952;2023-05-10T05:58:55;14.60;12.03
51305;HTU21D;37392;50.964;6.952;2023-05-10T06:01:20;14.77;12.30
51305;HTU21D;37392;50.964;6.952;2023-05-10T06:03:46;14.91;12.68
51305;HTU21D;37392;50.964;6.952;2023-05-10T06:06:11;14.94;12.13
51305;HTU21D;37392;50.964;6.952;2023-05-10T06:08:37;15.03;11.44
51305;HTU21D;37392;50.964;6.952;2023-05-10T06:11:03;15.04;11.04
51305;HTU21D;37392;50.964;6.952;2023-05-10T06:13:29;15.12;11.68
51305;HTU21D;37392;50.964;6.952;2023-05-10T06:15:57;15.12;11.85
51305;HTU21D;37392;50.964;6.952;2023-05-10T06:18:23;15.07;11.19
51305;HTU21D;37392;50.964;6.952;2023-05-10T06:20:49;15.09;11.46
51305;HTU21D;37392;50.964;6.952;2023-05-10T06:23:15;14.99;10.16
51305;HTU21D;37392;50.964;6.952;2023-05-10T06:25:40;14.93;10.33
51305;HTU21D;37392;50.964;6.952;2023-05-10T06:28:06;14.82;9.97
51305;HTU21D;37392;50.964;6.952;2023-05-10T06:30:31;14.79;10.09
51305;HTU21D;37392;50.964;6.952;2023-05-10T06:32:57;14.73;10.68
51305;HTU21D;37392;50.964;6.952;2023-05-10T06:35:22;14.73;10.62
51305;HTU21D;37392;50.964;6.952;2023-05-10T06:37:48;14.74;11.09
51305;HTU21D;37392;50.964;6.952;2023-05-10T06:40:14;14.71;10.74
51305;HTU21D;37392;50.964;6.952;2023-05-10T06:42:39;14.71;10.19
51305;HTU21D;37392;50.964;6.952;2023-05-10T06:45:05;14.79;10.29
51305;HTU21D;37392;50.964;6.952;2023-05-10T06:47:31;14.69;8.69
51305;HTU21D;37392;50.964;6.952;2023-05-10T06:49:56;14.63;7.86
51305;HTU21D;37392;50.964;6.952;2023-05-10T06:52:22;14.54;7.29
51305;HTU21D;37392;50.964;6.952;2023-05-10T06:54:48;14.49;8.60
51305;HTU21D;37392;50.964;6.952;2023-05-10T06:57:13;14.45;8.82
51305;HTU21D;37392;50.964;6.952;2023-05-10T06:59:39;14.47;9.10
51305;HTU21D;37392;50.964;6.952;2023-05-10T07:02:04;14.44;8.71
51305;HTU21D;37392;50.964;6.952;2023-05-10T07:04:30;14.43;8.75
51305;HTU21D;37392;50.964;6.952;2023-05-10T07:06:56;14.52;9.81
51305;HTU21D;37392;50.964;6.952;2023-05-10T07:09:22;14.54;9.88
51305;HTU21D;37392;50.964;6.952;2023-05-10T07:11:49;14.58;9.43
51305;HTU21D;37392;50.964;6.952;2023-05-10T07:14:15;14.64;9.68
51305;HTU21D;37392;50.964;6.952;2023-05-10T07:16:40;14.67;8.88
51305;HTU21D;37392;50.964;6.952;2023-05-10T07:19:05;14.74;9.11
51305;HTU21D;37392;50.964;6.952;2023-05-10T07:21:31;14.86;8.70
51305;HTU21D;37392;50.964;6.952;2023-05-10T07:23:57;15.07;8.65
51305;HTU21D;37392;50.964;6.952;2023-05-10T07:26:22;15.28;8.21
51305;HTU21D;37392;50.964;6.952;2023-05-10T07:28:49;15.34;7.96
51305;HTU21D;37392;50.964;6.952;2023-05-10T07:31:14;15.37;7.35
51305;HTU21D;37392;50.964;6.952;2023-05-10T07:33:40;15.46;7.51
51305;HTU21D;37392;50.964;6.952;2023-05-10T07:36:05;15.58;6.62
51305;HTU21D;37392;50.964;6.952;2023-05-10T07:38:31;15.70;6.60
51305;HTU21D;37392;50.964;6.952;2023-05-10T07:40:56;15.67;4.69
51305;HTU21D;37392;50.964;6.952;2023-05-10T07:43:22;15.70;5.20
51305;HTU21D;37392;50.964;6.952;2023-05-10T07:45:47;15.57;3.70
51305;HTU21D;37392;50.964;6.952;2023-05-10T07:48:13;15.47;4.41
51305;HTU21D;37392;50.964;6.952;2023-05-10T07:50:39;15.49;6.05
51305;HTU21D;37392;50.964;6.952;2023-05-10T07:53:04;15.45;5.01
51305;HTU21D;37392;50.964;6.952;2023-05-10T07:55:30;15.52;6.33
51305;HTU21D;37392;50.964;6.952;2023-05-10T07:57:55;15.43;4.93
51305;HTU21D;37392;50.964;6.952;2023-05-10T08:00:21;15.45;5.13
51305;HTU21D;37392;50.964;6.952;2023-05-10T08:02:46;15.30;4.73
51305;HTU21D;37392;50.964;6.952;2023-05-10T08:05:12;15.23;5.16
51305;HTU21D;37392;50.964;6.952;2023-05-10T08:07:38;15.21;6.69
51305;HTU21D;37392;50.964;6.952;2023-05-10T08:10:04;15.13;6.47
51305;HTU21D;37392;50.964;6.952;2023-05-10T08:12:30;15.13;6.94
51305;HTU21D;37392;50.964;6.952;2023-05-10T08:14:56;15.11;7.18
51305;HTU21D;37392;50.964;6.952;2023-05-10T08:17:21;15.16;8.53
51305;HTU21D;37392;50.964;6.952;2023-05-10T08:19:46;15.33;8.93
51305;HTU21D;37392;50.964;6.952;2023-05-10T08:22:12;15.51;9.79
51305;HTU21D;37392;50.964;6.952;2023-05-10T08:24:37;15.55;8.45
51305;HTU21D;37392;50.964;6.952;2023-05-10T08:27:07;15.69;8.62
51305;HTU21D;37392;50.964;6.952;2023-05-10T08:29:33;15.85;8.43
51305;HTU21D;37392;50.964;6.952;2023-05-10T08:31:59;15.89;8.82
51305;HTU21D;37392;50.964;6.952;2023-05-10T08:34:26;16.04;9.33
51305;HTU21D;37392;50.964;6.952;2023-05-10T08:36:52;16.06;8.11
51305;HTU21D;37392;50.964;6.952;2023-05-10T08:39:17;16.17;8.79
51305;HTU21D;37392;50.964;6.952;2023-05-10T08:41:44;16.17;8.02
51305;HTU21D;37392;50.964;6.952;2023-05-10T08:44:10;16.15;7.37
51305;HTU21D;37392;50.964;6.952;2023-05-10T08:46:35;16.08;6.71
51305;HTU21D;37392;50.964;6.952;2023-05-10T08:49:04;16.03;8.31
51305;HTU21D;37392;50.964;6.952;2023-05-10T08:51:32;15.89;6.93
51305;HTU21D;37392;50.964;6.952;2023-05-10T08:54:01;15.69;7.63
51305;HTU21D;37392;50.964;6.952;2023-05-10T08:56:28;15.62;8.56
51305;HTU21D;37392;50.964;6.952;2023-05-10T08:58:53;15.59;8.61
51305;HTU21D;37392;50.964;6.952;2023-05-10T09:01:20;15.60;9.51
51305;HTU21D;37392;50.964;6.952;2023-05-10T09:03:46;15.71;9.42
51305;HTU21D;37392;50.964;6.952;2023-05-10T09:06:13;15.96;10.62
51305;HTU21D;37392;50.964;6.952;2023-05-10T09:08:38;16.25;10.60
51305;HTU21D;37392;50.964;6.952;2023-05-10T09:11:05;16.63;10.86
51305;HTU21D;37392;50.964;6.952;2023-05-10T09:13:31;17.03;8.75
51305;HTU21D;37392;50.964;6.952;2023-05-10T09:15:57;17.40;5.68
51305;HTU21D;37392;50.964;6.952;2023-05-10T09:18:23;17.60;3.68
51305;HTU21D;37392;50.964;6.952;2023-05-10T09:20:48;17.78;2.80
51305;HTU21D;37392;50.964;6.952;2023-05-10T09:23:14;17.93;1.92
51305;HTU21D;37392;50.964;6.952;2023-05-10T09:25:41;17.91;0.38
51305;HTU21D;37392;50.964;6.952;2023-05-10T09:28:07;17.69;-2.99
51305;HTU21D;37392;50.964;6.952;2023-05-10T09:30:36;17.59;-0.58
51305;HTU21D;37392;50.964;6.952;2023-05-10T09:33:02;17.46;-0.48
51305;HTU21D;37392;50.964;6.952;2023-05-10T09:35:28;17.21;-2.64
51305;HTU21D;37392;50.964;6.952;2023-05-10T09:37:59;16.85;-3.96
51305;HTU21D;37392;50.964;6.952;2023-05-10T09:40:26;16.76;-0.97
51305;HTU21D;37392;50.964;6.952;2023-05-10T09:45:19;16.90;-2.57
51305;HTU21D;37392;50.964;6.952;2023-05-10T09:47:45;17.31;-1.85
51305;HTU21D;37392;50.964;6.952;2023-05-10T09:50:11;17.84;-2.91
51305;HTU21D;37392;50.964;6.952;2023-05-10T09:53:19;17.98;118.02
51305;HTU21D;37392;50.964;6.952;2023-05-10T09:58:10;17.97;117.95
51305;HTU21D;37392;50.964;6.952;2023-05-10T10:00:40;17.84;116.35
51305;HTU21D;37392;50.964;6.952;2023-05-10T10:03:13;17.77;117.60
51305;HTU21D;37392;50.964;6.952;2023-05-10T10:05:40;17.79;117.37
51305;HTU21D;37392;50.964;6.952;2023-05-10T10:08:09;17.78;115.85
51305;HTU21D;37392;50.964;6.952;2023-05-10T10:10:35;17.90;113.83
51305;HTU21D;37392;50.964;6.952;2023-05-10T10:13:01;18.39;115.41
51305;HTU21D;37392;50.964;6.952;2023-05-10T10:15:27;18.85;109.54
51305;HTU21D;37392;50.964;6.952;2023-05-10T10:17:52;19.41;109.55
51305;HTU21D;37392;50.964;6.952;2023-05-10T10:20:19;19.96;104.61
51305;HTU21D;37392;50.964;6.952;2023-05-10T10:22:46;20.37;101.90
51305;HTU21D;37392;50.964;6.952;2023-05-10T10:25:12;20.63;98.13
51305;HTU21D;37392;50.964;6.952;2023-05-10T10:33:17;21.78;91.93
51305;HTU21D;37392;50.964;6.952;2023-05-10T10:36:00;22.17;92.18
51305;HTU21D;37392;50.964;6.952;2023-05-10T10:41:35;23.23;85.22
51305;HTU21D;37392;50.964;6.952;2023-05-10T10:52:15;24.38;77.08
51305;HTU21D;37392;50.964;6.952;2023-05-10T10:55:38;23.98;76.18
51305;HTU21D;37392;50.964;6.952;2023-05-10T10:57:46;23.66;79.45
51305;HTU21D;37392;50.964;6.952;2023-05-10T11:08:46;22.40;81.03
51305;HTU21D;37392;50.964;6.952;2023-05-10T11:15:54;23.16;78.21
51305;HTU21D;37392;50.964;6.952;2023-05-10T11:18:29;22.98;75.68
51305;HTU21D;37392;50.964;6.952;2023-05-10T11:20:56;22.75;75.34
51305;HTU21D;37392;50.964;6.952;2023-05-10T11:23:31;22.68;74.89
51305;HTU21D;37392;50.964;6.952;2023-05-10T11:25:58;22.49;76.50
51305;HTU21D;37392;50.964;6.952;2023-05-10T11:28:25;22.62;74.64
51305;HTU21D;37392;50.964;6.952;2023-05-10T11:30:52;22.52;74.81
51305;HTU21D;37392;50.964;6.952;2023-05-10T11:33:17;22.70;74.10
51305;HTU21D;37392;50.964;6.952;2023-05-10T11:35:44;23.02;73.51
51305;HTU21D;37392;50.964;6.952;2023-05-10T11:38:10;23.31;72.42
51305;HTU21D;37392;50.964;6.952;2023-05-10T11:40:37;23.61;71.74
51305;HTU21D;37392;50.964;6.952;2023-05-10T11:43:03;23.65;70.33
51305;HTU21D;37392;50.964;6.952;2023-05-10T11:45:31;23.90;69.20
51305;HTU21D;37392;50.964;6.952;2023-05-10T11:47:57;24.06;68.94
51305;HTU21D;37392;50.964;6.952;2023-05-10T11:50:23;24.28;68.20
51305;HTU21D;37392;50.964;6.952;2023-05-10T11:52:52;24.06;65.57
51305;HTU21D;37392;50.964;6.952;2023-05-10T11:55:18;24.02;65.60
51305;HTU21D;37392;50.964;6.952;2023-05-10T11:57:44;23.86;66.07
51305;HTU21D;37392;50.964;6.952;2023-05-10T12:00:11;23.62;65.22
51305;HTU21D;37392;50.964;6.952;2023-05-10T12:02:37;23.25;65.22
51305;HTU21D;37392;50.964;6.952;2023-05-10T12:05:03;23.00;66.07
51305;HTU21D;37392;50.964;6.952;2023-05-10T12:07:30;23.02;66.85
51305;HTU21D;37392;50.964;6.952;2023-05-10T12:10:02;23.22;66.19
51305;HTU21D;37392;50.964;6.952;2023-05-10T12:12:34;23.53;66.29
51305;HTU21D;37392;50.964;6.952;2023-05-10T12:15:04;23.70;65.14
51305;HTU21D;37392;50.964;6.952;2023-05-10T12:17:31;23.74;64.85
51305;HTU21D;37392;50.964;6.952;2023-05-10T12:22:51;23.96;64.53
51305;HTU21D;37392;50.964;6.952;2023-05-10T12:25:18;24.21;64.14
51305;HTU21D;37392;50.964;6.952;2023-05-10T12:27:48;24.04;63.96
51305;HTU21D;37392;50.964;6.952;2023-05-10T12:33:13;23.71;62.90
51305;HTU21D;37392;50.964;6.952;2023-05-10T12:35:49;23.68;63.12
51305;HTU21D;37392;50.964;6.952;2023-05-10T12:38:25;23.62;63.49
51305;HTU21D;37392;50.964;6.952;2023-05-10T12:41:07;24.00;63.27
51305;HTU21D;37392;50.964;6.952;2023-05-10T12:43:51;24.20;63.07
51305;HTU21D;37392;50.964;6.952;2023-05-10T12:46:17;24.12;62.23
51305;HTU21D;37392;50.964;6.952;2023-05-10T12:48:43;24.05;62.58
51305;HTU21D;37392;50.964;6.952;2023-05-10T12:51:10;24.17;63.01
51305;HTU21D;37392;50.964;6.952;2023-05-10T12:53:37;24.21;61.91
51305;HTU21D;37392;50.964;6.952;2023-05-10T12:56:03;24.24;61.54
51305;HTU21D;37392;50.964;6.952;2023-05-10T12:58:28;24.51;60.70
51305;HTU21D;37392;50.964;6.952;2023-05-10T13:00:54;24.63;60.52
51305;HTU21D;37392;50.964;6.952;2023-05-10T13:03:21;24.57;60.42
51305;HTU21D;37392;50.964;6.952;2023-05-10T13:05:47;24.74;59.08
51305;HTU21D;37392;50.964;6.952;2023-05-10T13:08:12;24.77;58.83
51305;HTU21D;37392;50.964;6.952;2023-05-10T13:10:38;24.75;58.28
51305;HTU21D;37392;50.964;6.952;2023-05-10T13:13:04;24.66;59.42
51305;HTU21D;37392;50.964;6.952;2023-05-10T13:15:30;24.49;60.40
51305;HTU21D;37392;50.964;6.952;2023-05-10T13:17:55;24.47;59.92
51305;HTU21D;37392;50.964;6.952;2023-05-10T13:20:21;24.51;60.25
51305;HTU21D;37392;50.964;6.952;2023-05-10T13:22:46;24.21;60.86
51305;HTU21D;37392;50.964;6.952;2023-05-10T13:25:12;23.86;61.38
51305;HTU21D;37392;50.964;6.952;2023-05-10T13:27:41;23.72;61.11
51305;HTU21D;37392;50.964;6.952;2023-05-10T13:30:09;23.55;61.34
51305;HTU21D;37392;50.964;6.952;2023-05-10T13:32:36;23.40;62.22
51305;HTU21D;37392;50.964;6.952;2023-05-10T13:35:02;23.14;62.41
51305;HTU21D;37392;50.964;6.952;2023-05-10T13:37:30;22.76;64.57
51305;HTU21D;37392;50.964;6.952;2023-05-10T13:39:57;22.52;65.55
51305;HTU21D;37392;50.964;6.952;2023-05-10T13:42:22;22.36;66.18
51305;HTU21D;37392;50.964;6.952;2023-05-10T13:44:52;22.25;66.62
51305;HTU21D;37392;50.964;6.952;2023-05-10T13:47:17;22.17;66.22
51305;HTU21D;37392;50.964;6.952;2023-05-10T13:49:43;22.18;66.64
51305;HTU21D;37392;50.964;6.952;2023-05-10T13:52:08;22.24;66.20
51305;HTU21D;37392;50.964;6.952;2023-05-10T13:54:38;22.26;66.29
51305;HTU21D;37392;50.964;6.952;2023-05-10T13:57:03;22.33;65.40
51305;HTU21D;37392;50.964;6.952;2023-05-10T13:59:29;22.50;64.56
51305;HTU21D;37392;50.964;6.952;2023-05-10T14:01:57;22.34;64.20
51305;HTU21D;37392;50.964;6.952;2023-05-10T14:04:23;22.68;64.85
51305;HTU21D;37392;50.964;6.952;2023-05-10T14:06:48;23.17;63.21
51305;HTU21D;37392;50.964;6.952;2023-05-10T14:09:14;23.31;63.33
51305;HTU21D;37392;50.964;6.952;2023-05-10T14:11:39;23.42;62.61
51305;HTU21D;37392;50.964;6.952;2023-05-10T14:14:08;23.44;62.92
51305;HTU21D;37392;50.964;6.952;2023-05-10T14:16:34;23.50;62.52
51305;HTU21D;37392;50.964;6.952;2023-05-10T14:18:59;23.61;62.55
51305;HTU21D;37392;50.964;6.952;2023-05-10T14:21:25;23.72;61.60
51305;HTU21D;37392;50.964;6.952;2023-05-10T14:23:50;23.86;61.41
51305;HTU21D;37392;50.964;6.952;2023-05-10T14:26:16;24.01;60.96
51305;HTU21D;37392;50.964;6.952;2023-05-10T14:28:41;24.19;58.99
51305;HTU21D;37392;50.964;6.952;2023-05-10T14:31:07;24.43;58.58
51305;HTU21D;37392;50.964;6.952;2023-05-10T14:33:32;24.48;58.70
51305;HTU21D;37392;50.964;6.952;2023-05-10T14:35:58;24.86;58.14
51305;HTU21D;37392;50.964;6.952;2023-05-10T14:38:24;25.17;56.81
51305;HTU21D;37392;50.964;6.952;2023-05-10T14:40:50;24.73;57.24
51305;HTU21D;37392;50.964;6.952;2023-05-10T14:43:15;24.57;58.31
51305;HTU21D;37392;50.964;6.952;2023-05-10T14:45:41;24.20;58.47
51305;HTU21D;37392;50.964;6.952;2023-05-10T14:48:06;23.57;59.95
51305;HTU21D;37392;50.964;6.952;2023-05-10T14:50:36;22.93;61.98
51305;HTU21D;37392;50.964;6.952;2023-05-10T14:53:01;22.24;64.46
51305;HTU21D;37392;50.964;6.952;2023-05-10T14:55:27;21.89;65.62
51305;HTU21D;37392;50.964;6.952;2023-05-10T14:57:52;21.52;65.80
51305;HTU21D;37392;50.964;6.952;2023-05-10T15:00:18;21.44;66.78
51305;HTU21D;37392;50.964;6.952;2023-05-10T15:02:44;21.34;67.08
51305;HTU21D;37392;50.964;6.952;2023-05-10T15:05:09;21.19;67.19
51305;HTU21D;37392;50.964;6.952;2023-05-10T15:07:35;20.99;68.11
51305;HTU21D;37392;50.964;6.952;2023-05-10T15:10:00;20.99;69.20
51305;HTU21D;37392;50.964;6.952;2023-05-10T15:12:26;21.03;68.33
51305;HTU21D;37392;50.964;6.952;2023-05-10T15:14:51;20.85;70.68
51305;HTU21D;37392;50.964;6.952;2023-05-10T15:17:17;20.64;72.49
51305;HTU21D;37392;50.964;6.952;2023-05-10T15:19:42;20.45;73.68
51305;HTU21D;37392;50.964;6.952;2023-05-10T15:22:08;20.25;74.67
51305;HTU21D;37392;50.964;6.952;2023-05-10T15:24:33;20.12;75.20
51305;HTU21D;37392;50.964;6.952;2023-05-10T15:26:59;19.98;75.92
51305;HTU21D;37392;50.964;6.952;2023-05-10T15:29:25;19.84;76.02
51305;HTU21D;37392;50.964;6.952;2023-05-10T15:31:51;19.73;77.69
51305;HTU21D;37392;50.964;6.952;2023-05-10T15:34:16;19.38;89.74
51305;HTU21D;37392;50.964;6.952;2023-05-10T15:36:43;18.53;96.96
51305;HTU21D;37392;50.964;6.952;2023-05-10T15:39:08;17.94;103.08
51305;HTU21D;37392;50.964;6.952;2023-05-10T15:41:34;17.53;105.99
51305;HTU21D;37392;50.964;6.952;2023-05-10T15:44:00;17.50;113.11
51305;HTU21D;37392;50.964;6.952;2023-05-10T15:46:29;17.49;109.92
51305;HTU21D;37392;50.964;6.952;2023-05-10T15:48:55;17.54;110.41
51305;HTU21D;37392;50.964;6.952;2023-05-10T15:51:21;17.74;110.90
51305;HTU21D;37392;50.964;6.952;2023-05-10T15:53:47;18.12;109.72
51305;HTU21D;37392;50.964;6.952;2023-05-10T15:56:13;18.49;108.64
51305;HTU21D;37392;50.964;6.952;2023-05-10T15:58:39;18.83;106.06
51305;HTU21D;37392;50.964;6.952;2023-05-10T16:01:04;19.08;101.46
51305;HTU21D;37392;50.964;6.952;2023-05-10T16:03:30;19.22;99.51
51305;HTU21D;37392;50.964;6.952;2023-05-10T16:05:58;19.26;95.67
51305;HTU21D;37392;50.964;6.952;2023-05-10T16:08:23;19.35;93.76
51305;HTU21D;37392;50.964;6.952;2023-05-10T16:10:52;19.52;95.89